Terminal Aerodrome Forecast
Issued by NWS Mt. Holly, NJ

Home | Current Version | Previous Version | Text Only | Print | Product List | Glossary On
Versions: 1 2 3 4 5 6 7 8 9 10 11 12 13 14 15 16 17 18 19 20 21 22 23 24 25 26 27
000
FTUS41 KPHI 230234 AAB
TAFACY
TAF AMD
KACY 230234Z 2303/2324 06020G30KT 6SM BR OVC005
     FM230600 06022G32KT 2SM -RADZ BR OVC003
     FM231000 06027G35KT 3SM RA BR OVC003
     FM231400 06030G45KT 4SM RA BR OVC003=

USA.gov is the U.S. government's official web portal to all federal, state and local government web resources and services.